DLH439Y EDDP-EKBI
Flight info
| Callsign | DLH439Y |
|---|---|
| Flight time | 1h 13m |
| Altitude | 33000 |
| Route | PENEM1Q/08L PENEM Z131 PENEK DCT RADEL DCT SONAL/N0436F340 DCT LOKSA |
| Aircraft | A320/M-SDE3FGHIRWY/LB1 |
Departure
| Time | 2026-05-07 18:23 |
|---|---|
| Airport | Leipzig/Halle Airport (EDDP) |
Arrival
| Time | 2026-05-07 19:36 |
|---|---|
| Airport | Billund Airport (EKBI) |
| Time | Latitude | Longitude | Altitude | Speed | Heading |
|---|---|---|---|---|---|
| 2026-05-07 17:51 | 51.41866 | 12.22263 | 449 ft | 0 kts | 15° |
| 2026-05-07 18:14 | 51.41845 | 12.22254 | 449 ft | 4 kts | 13° |
| 2026-05-07 18:14 | 51.41818 | 12.22246 | 448 ft | 4 kts | 8° |
| 2026-05-07 18:14 | 51.41792 | 12.22243 | 449 ft | 4 kts | 353° |
| 2026-05-07 18:14 | 51.41769 | 12.22254 | 450 ft | 4 kts | 303° |
| 2026-05-07 18:15 | 51.41765 | 12.22269 | 451 ft | 1 kts | 285° |
| 2026-05-07 18:15 | 51.41764 | 12.22270 | 450 ft | 1 kts | 285° |
| 2026-05-07 18:17 | 51.41767 | 12.22257 | 451 ft | 3 kts | 285° |
| 2026-05-07 18:17 | 51.41779 | 12.22188 | 450 ft | 10 kts | 285° |
| 2026-05-07 18:17 | 51.41804 | 12.22046 | 447 ft | 16 kts | 286° |
| 2026-05-07 18:18 | 51.41837 | 12.21840 | 436 ft | 21 kts | 284° |
| 2026-05-07 18:18 | 51.41880 | 12.21595 | 438 ft | 24 kts | 286° |
| 2026-05-07 18:18 | 51.41926 | 12.21319 | 423 ft | 26 kts | 284° |
| 2026-05-07 18:18 | 51.41977 | 12.21025 | 427 ft | 29 kts | 286° |
| 2026-05-07 18:19 | 51.42067 | 12.20925 | 426 ft | 13 kts | 14° |
| 2026-05-07 18:19 | 51.42157 | 12.20965 | 430 ft | 13 kts | 15° |
| 2026-05-07 18:19 | 51.42242 | 12.21003 | 426 ft | 15 kts | 15° |
| 2026-05-07 18:19 | 51.42365 | 12.21059 | 439 ft | 22 kts | 14° |
| 2026-05-07 18:20 | 51.42524 | 12.21128 | 442 ft | 26 kts | 15° |
| 2026-05-07 18:20 | 51.42709 | 12.21208 | 428 ft | 24 kts | 15° |
| 2026-05-07 18:20 | 51.42870 | 12.21281 | 428 ft | 25 kts | 16° |
| 2026-05-07 18:20 | 51.42999 | 12.21457 | 434 ft | 24 kts | 45° |
| 2026-05-07 18:21 | 51.43091 | 12.21605 | 426 ft | 16 kts | 45° |
| 2026-05-07 18:21 | 51.43136 | 12.21762 | 439 ft | 16 kts | 84° |
| 2026-05-07 18:21 | 51.43139 | 12.21829 | 438 ft | 0 kts | 85° |
| 2026-05-07 18:22 | 51.43140 | 12.21841 | 438 ft | 9 kts | 85° |
| 2026-05-07 18:22 | 51.43184 | 12.22730 | 439 ft | 105 kts | 86° |
| 2026-05-07 18:22 | 51.43253 | 12.24186 | 447 ft | 156 kts | 86° |
| 2026-05-07 18:23 | 51.43335 | 12.25989 | 892 ft | 165 kts | 84° |
| 2026-05-07 18:23 | 51.43513 | 12.27880 | 1396 ft | 179 kts | 65° |
| 2026-05-07 18:23 | 51.44300 | 12.29397 | 2066 ft | 178 kts | 36° |
| 2026-05-07 18:23 | 51.45324 | 12.30621 | 2488 ft | 195 kts | 38° |
| 2026-05-07 18:24 | 51.46476 | 12.31986 | 2780 ft | 217 kts | 30° |
| 2026-05-07 18:24 | 51.47955 | 12.32495 | 3452 ft | 220 kts | 349° |
| 2026-05-07 18:24 | 51.49290 | 12.31365 | 4331 ft | 220 kts | 321° |
| 2026-05-07 18:24 | 51.50482 | 12.29809 | 5129 ft | 222 kts | 324° |
| 2026-05-07 18:25 | 51.51734 | 12.28335 | 5868 ft | 224 kts | 326° |
| 2026-05-07 18:25 | 51.53031 | 12.26913 | 6585 ft | 228 kts | 327° |
| 2026-05-07 18:25 | 51.54365 | 12.25521 | 6980 ft | 232 kts | 328° |
| 2026-05-07 18:25 | 51.55731 | 12.24141 | 7069 ft | 231 kts | 329° |
| 2026-05-07 18:26 | 51.57099 | 12.22781 | 7089 ft | 231 kts | 330° |
| 2026-05-07 18:26 | 51.58469 | 12.21436 | 7092 ft | 231 kts | 330° |
| 2026-05-07 18:26 | 51.59842 | 12.20097 | 7089 ft | 230 kts | 330° |
| 2026-05-07 18:26 | 51.61222 | 12.18753 | 7167 ft | 237 kts | 329° |
| 2026-05-07 18:27 | 51.62696 | 12.17274 | 7478 ft | 261 kts | 329° |
| 2026-05-07 18:27 | 51.64277 | 12.15662 | 8004 ft | 274 kts | 328° |
| 2026-05-07 18:27 | 51.65896 | 12.14002 | 8812 ft | 278 kts | 329° |
| 2026-05-07 18:27 | 51.67557 | 12.12336 | 9591 ft | 283 kts | 334° |
| 2026-05-07 18:28 | 51.69369 | 12.11183 | 10259 ft | 289 kts | 347° |
| 2026-05-07 18:28 | 51.71431 | 12.10801 | 10481 ft | 310 kts | 4° |
| 2026-05-07 18:28 | 51.73604 | 12.11454 | 10797 ft | 325 kts | 20° |
| 2026-05-07 18:28 | 51.75658 | 12.13088 | 11431 ft | 331 kts | 30° |
| 2026-05-07 18:29 | 51.77682 | 12.14911 | 12156 ft | 334 kts | 29° |
| 2026-05-07 18:29 | 51.79728 | 12.16732 | 12877 ft | 338 kts | 29° |
| 2026-05-07 18:29 | 51.81814 | 12.18535 | 13593 ft | 342 kts | 27° |
| 2026-05-07 18:29 | 51.83951 | 12.20270 | 14229 ft | 345 kts | 26° |
| 2026-05-07 18:30 | 51.86124 | 12.21980 | 14831 ft | 349 kts | 26° |
| 2026-05-07 18:30 | 51.88327 | 12.23699 | 15433 ft | 353 kts | 26° |
| 2026-05-07 18:30 | 51.90555 | 12.25438 | 15995 ft | 358 kts | 26° |
| 2026-05-07 18:30 | 51.92809 | 12.27211 | 16570 ft | 362 kts | 26° |
| 2026-05-07 18:31 | 51.95060 | 12.28993 | 17150 ft | 366 kts | 26° |
| 2026-05-07 18:31 | 51.97357 | 12.30822 | 17752 ft | 368 kts | 26° |
| 2026-05-07 18:31 | 51.99657 | 12.32658 | 18455 ft | 369 kts | 26° |
| 2026-05-07 18:31 | 52.01971 | 12.34511 | 18924 ft | 371 kts | 26° |
| 2026-05-07 18:32 | 52.04291 | 12.36375 | 19060 ft | 372 kts | 26° |
| 2026-05-07 18:32 | 52.06605 | 12.38244 | 19097 ft | 372 kts | 26° |
| 2026-05-07 18:32 | 52.08936 | 12.40128 | 19479 ft | 375 kts | 26° |
| 2026-05-07 18:32 | 52.11252 | 12.41987 | 20025 ft | 377 kts | 25° |
| 2026-05-07 18:33 | 52.13625 | 12.43877 | 20505 ft | 382 kts | 25° |
| 2026-05-07 18:33 | 52.16029 | 12.45788 | 21014 ft | 385 kts | 25° |
| 2026-05-07 18:33 | 52.18443 | 12.47705 | 21535 ft | 388 kts | 25° |
| 2026-05-07 18:33 | 52.20889 | 12.49650 | 22067 ft | 391 kts | 25° |
| 2026-05-07 18:34 | 52.23345 | 12.51609 | 22578 ft | 394 kts | 25° |
| 2026-05-07 18:34 | 52.25810 | 12.53581 | 23071 ft | 397 kts | 25° |
| 2026-05-07 18:34 | 52.28302 | 12.55578 | 23556 ft | 399 kts | 25° |
| 2026-05-07 18:34 | 52.30808 | 12.57590 | 23967 ft | 402 kts | 25° |
| 2026-05-07 18:35 | 52.33323 | 12.59615 | 24362 ft | 404 kts | 25° |
| 2026-05-07 18:35 | 52.35669 | 12.61506 | 24701 ft | 407 kts | 25° |
| 2026-05-07 18:35 | 52.38150 | 12.63509 | 25062 ft | 409 kts | 26° |
| 2026-05-07 18:35 | 52.40711 | 12.65578 | 25435 ft | 411 kts | 26° |
| 2026-05-07 18:36 | 52.43250 | 12.67643 | 25793 ft | 413 kts | 26° |
| 2026-05-07 18:36 | 52.45829 | 12.69760 | 26157 ft | 415 kts | 26° |
| 2026-05-07 18:36 | 52.48422 | 12.71897 | 26514 ft | 417 kts | 26° |
| 2026-05-07 18:36 | 52.51021 | 12.74039 | 26867 ft | 419 kts | 26° |
| 2026-05-07 18:37 | 52.53636 | 12.76190 | 27215 ft | 421 kts | 26° |
| 2026-05-07 18:37 | 52.56257 | 12.78344 | 27546 ft | 423 kts | 26° |
| 2026-05-07 18:37 | 52.58902 | 12.80516 | 27862 ft | 425 kts | 26° |
| 2026-05-07 18:37 | 52.61555 | 12.82699 | 28069 ft | 426 kts | 26° |
| 2026-05-07 18:38 | 52.64208 | 12.84889 | 28105 ft | 427 kts | 26° |
| 2026-05-07 18:38 | 52.66872 | 12.87092 | 28412 ft | 429 kts | 26° |
| 2026-05-07 18:38 | 52.69540 | 12.89303 | 28748 ft | 430 kts | 26° |
| 2026-05-07 18:38 | 52.72190 | 12.91503 | 29054 ft | 432 kts | 26° |
| 2026-05-07 18:39 | 52.74880 | 12.93741 | 29355 ft | 434 kts | 26° |
| 2026-05-07 18:39 | 52.77580 | 12.95992 | 29637 ft | 435 kts | 26° |
| 2026-05-07 18:39 | 52.80295 | 12.98258 | 29926 ft | 437 kts | 26° |
| 2026-05-07 18:39 | 52.83016 | 13.00528 | 30179 ft | 439 kts | 26° |
| 2026-05-07 18:40 | 52.85750 | 13.02813 | 30403 ft | 440 kts | 26° |
| 2026-05-07 18:40 | 52.88489 | 13.05110 | 30602 ft | 443 kts | 26° |
| 2026-05-07 18:40 | 52.91273 | 13.07336 | 30788 ft | 444 kts | 21° |
| 2026-05-07 18:40 | 52.94212 | 13.08903 | 30976 ft | 446 kts | 12° |
| 2026-05-07 18:41 | 52.97276 | 13.09679 | 31198 ft | 446 kts | 3° |
| 2026-05-07 18:41 | 53.00339 | 13.09650 | 31454 ft | 446 kts | 354° |
| 2026-05-07 18:41 | 53.03469 | 13.09139 | 31674 ft | 447 kts | 354° |
| 2026-05-07 18:41 | 53.06532 | 13.08644 | 31871 ft | 448 kts | 354° |
| 2026-05-07 18:42 | 53.09645 | 13.08146 | 32120 ft | 449 kts | 354° |
| 2026-05-07 18:42 | 53.12761 | 13.07650 | 32360 ft | 449 kts | 354° |
| 2026-05-07 18:42 | 53.15883 | 13.07151 | 32599 ft | 450 kts | 354° |
| 2026-05-07 18:42 | 53.19001 | 13.06646 | 32841 ft | 451 kts | 354° |
| 2026-05-07 18:43 | 53.22134 | 13.06134 | 33053 ft | 452 kts | 354° |
| 2026-05-07 18:43 | 53.28395 | 13.05100 | 33112 ft | 452 kts | 353° |
| 2026-05-07 18:44 | 53.34664 | 13.04080 | 33118 ft | 452 kts | 354° |
| 2026-05-07 18:44 | 53.40892 | 13.03074 | 33118 ft | 453 kts | 354° |
| 2026-05-07 18:45 | 53.47168 | 13.02047 | 33113 ft | 452 kts | 354° |
| 2026-05-07 18:45 | 53.53440 | 13.01002 | 33113 ft | 452 kts | 354° |
| 2026-05-07 18:46 | 53.59707 | 12.99951 | 33116 ft | 452 kts | 354° |
| 2026-05-07 18:46 | 53.65925 | 12.98916 | 33131 ft | 451 kts | 354° |
| 2026-05-07 18:47 | 53.72183 | 12.97880 | 33117 ft | 452 kts | 354° |
| 2026-05-07 18:47 | 53.78444 | 12.96837 | 33139 ft | 452 kts | 354° |
| 2026-05-07 18:48 | 53.84692 | 12.95782 | 33125 ft | 451 kts | 354° |
| 2026-05-07 18:48 | 53.90934 | 12.94730 | 33133 ft | 451 kts | 354° |
| 2026-05-07 18:49 | 53.97177 | 12.93691 | 33145 ft | 450 kts | 354° |
| 2026-05-07 18:49 | 54.03418 | 12.92642 | 33146 ft | 450 kts | 354° |
| 2026-05-07 18:50 | 54.09645 | 12.91587 | 33131 ft | 448 kts | 354° |
| 2026-05-07 18:50 | 54.15721 | 12.89780 | 33148 ft | 447 kts | 337° |
| 2026-05-07 18:50 | 54.18427 | 12.87181 | 33133 ft | 447 kts | 321° |
| 2026-05-07 18:51 | 54.20636 | 12.83450 | 33137 ft | 448 kts | 310° |
| 2026-05-07 18:51 | 54.24662 | 12.75313 | 33140 ft | 449 kts | 310° |
| 2026-05-07 18:52 | 54.28694 | 12.67138 | 33138 ft | 449 kts | 311° |
| 2026-05-07 18:52 | 54.32723 | 12.58977 | 33146 ft | 449 kts | 311° |
| 2026-05-07 18:53 | 54.36754 | 12.50790 | 33143 ft | 448 kts | 311° |
| 2026-05-07 18:53 | 54.40774 | 12.42590 | 33151 ft | 448 kts | 311° |
| 2026-05-07 18:54 | 54.44757 | 12.34437 | 33150 ft | 449 kts | 311° |
| 2026-05-07 18:54 | 54.48762 | 12.26203 | 33143 ft | 449 kts | 311° |
| 2026-05-07 18:55 | 54.52766 | 12.17936 | 33149 ft | 449 kts | 311° |
| 2026-05-07 18:55 | 54.56763 | 12.09662 | 33163 ft | 449 kts | 311° |
| 2026-05-07 18:56 | 54.60748 | 12.01396 | 32897 ft | 442 kts | 311° |
| 2026-05-07 18:56 | 54.62699 | 11.97337 | 32362 ft | 437 kts | 310° |
| 2026-05-07 18:56 | 54.64600 | 11.93370 | 31817 ft | 432 kts | 310° |
| 2026-05-07 18:56 | 54.66509 | 11.89380 | 31258 ft | 429 kts | 311° |
| 2026-05-07 18:57 | 54.68401 | 11.85418 | 30717 ft | 425 kts | 311° |
| 2026-05-07 18:57 | 54.70277 | 11.81487 | 30198 ft | 422 kts | 311° |
| 2026-05-07 18:57 | 54.72139 | 11.77582 | 29611 ft | 418 kts | 311° |
| 2026-05-07 18:57 | 54.73980 | 11.73715 | 29052 ft | 414 kts | 310° |
| 2026-05-07 18:58 | 54.75804 | 11.69880 | 28506 ft | 410 kts | 310° |
| 2026-05-07 18:58 | 54.77610 | 11.66081 | 27969 ft | 407 kts | 310° |
| 2026-05-07 18:58 | 54.79401 | 11.62312 | 27450 ft | 403 kts | 310° |
| 2026-05-07 18:58 | 54.81177 | 11.58566 | 26940 ft | 399 kts | 310° |
| 2026-05-07 18:59 | 54.82930 | 11.54851 | 26454 ft | 396 kts | 310° |
| 2026-05-07 18:59 | 54.84664 | 11.51167 | 25957 ft | 393 kts | 310° |
| 2026-05-07 18:59 | 54.86385 | 11.47510 | 25488 ft | 390 kts | 310° |
| 2026-05-07 18:59 | 54.88075 | 11.43924 | 25043 ft | 386 kts | 310° |
| 2026-05-07 19:00 | 54.89770 | 11.40320 | 24599 ft | 383 kts | 310° |
| 2026-05-07 19:00 | 54.91447 | 11.36743 | 24166 ft | 380 kts | 309° |
| 2026-05-07 19:00 | 54.93108 | 11.33192 | 23735 ft | 377 kts | 309° |
| 2026-05-07 19:00 | 54.94758 | 11.29661 | 23213 ft | 374 kts | 309° |
| 2026-05-07 19:01 | 54.96394 | 11.26157 | 22720 ft | 371 kts | 309° |
| 2026-05-07 19:01 | 54.98016 | 11.22676 | 22233 ft | 369 kts | 309° |
| 2026-05-07 19:01 | 54.99625 | 11.19217 | 21770 ft | 366 kts | 309° |
| 2026-05-07 19:01 | 55.01217 | 11.15790 | 21315 ft | 363 kts | 309° |
| 2026-05-07 19:02 | 55.02799 | 11.12373 | 20862 ft | 360 kts | 309° |
| 2026-05-07 19:02 | 55.04368 | 11.08990 | 20408 ft | 358 kts | 309° |
| 2026-05-07 19:02 | 55.05933 | 11.05632 | 19965 ft | 355 kts | 309° |
| 2026-05-07 19:02 | 55.07468 | 11.02341 | 19535 ft | 353 kts | 309° |
| 2026-05-07 19:03 | 55.09019 | 10.99021 | 19112 ft | 351 kts | 309° |
| 2026-05-07 19:03 | 55.10559 | 10.95734 | 18700 ft | 349 kts | 309° |
| 2026-05-07 19:03 | 55.12095 | 10.92461 | 18265 ft | 347 kts | 309° |
| 2026-05-07 19:03 | 55.13619 | 10.89211 | 17797 ft | 345 kts | 309° |
| 2026-05-07 19:04 | 55.15132 | 10.85977 | 17339 ft | 343 kts | 309° |
| 2026-05-07 19:04 | 55.16638 | 10.82750 | 16889 ft | 341 kts | 309° |
| 2026-05-07 19:04 | 55.18131 | 10.79543 | 16465 ft | 339 kts | 309° |
| 2026-05-07 19:04 | 55.19615 | 10.76345 | 16045 ft | 338 kts | 309° |
| 2026-05-07 19:05 | 55.21091 | 10.73160 | 15632 ft | 336 kts | 309° |
| 2026-05-07 19:05 | 55.22557 | 10.69990 | 15223 ft | 334 kts | 309° |
| 2026-05-07 19:05 | 55.23996 | 10.66871 | 14824 ft | 333 kts | 309° |
| 2026-05-07 19:05 | 55.25447 | 10.63724 | 14440 ft | 331 kts | 309° |
| 2026-05-07 19:06 | 55.26887 | 10.60590 | 14033 ft | 329 kts | 309° |
| 2026-05-07 19:06 | 55.29746 | 10.54333 | 13135 ft | 327 kts | 309° |
| 2026-05-07 19:06 | 55.31166 | 10.51215 | 12703 ft | 325 kts | 309° |
| 2026-05-07 19:07 | 55.32100 | 10.49156 | 12399 ft | 324 kts | 309° |
| 2026-05-07 19:07 | 55.33508 | 10.46052 | 11982 ft | 323 kts | 309° |
| 2026-05-07 19:07 | 55.34898 | 10.42976 | 11548 ft | 321 kts | 309° |
| 2026-05-07 19:07 | 55.36279 | 10.39898 | 11122 ft | 320 kts | 309° |
| 2026-05-07 19:08 | 55.38100 | 10.35829 | 10580 ft | 318 kts | 309° |
| 2026-05-07 19:08 | 55.39010 | 10.33790 | 10481 ft | 310 kts | 308° |
| 2026-05-07 19:08 | 55.40321 | 10.30849 | 10341 ft | 299 kts | 308° |
| 2026-05-07 19:08 | 55.41573 | 10.28032 | 10108 ft | 293 kts | 308° |
| 2026-05-07 19:09 | 55.42824 | 10.25209 | 9747 ft | 291 kts | 308° |
| 2026-05-07 19:09 | 55.44066 | 10.22402 | 9383 ft | 289 kts | 308° |
| 2026-05-07 19:09 | 55.45292 | 10.19622 | 9031 ft | 286 kts | 308° |
| 2026-05-07 19:09 | 55.46508 | 10.16860 | 8658 ft | 283 kts | 308° |
| 2026-05-07 19:10 | 55.47707 | 10.14127 | 8294 ft | 280 kts | 308° |
| 2026-05-07 19:10 | 55.48893 | 10.11415 | 7931 ft | 278 kts | 308° |
| 2026-05-07 19:10 | 55.50067 | 10.08722 | 7571 ft | 275 kts | 308° |
| 2026-05-07 19:10 | 55.51225 | 10.06057 | 7225 ft | 272 kts | 308° |
| 2026-05-07 19:11 | 55.52386 | 10.03416 | 7142 ft | 273 kts | 308° |
| 2026-05-07 19:11 | 55.53510 | 10.00885 | 7141 ft | 257 kts | 308° |
| 2026-05-07 19:11 | 55.54580 | 9.98471 | 7074 ft | 243 kts | 308° |
| 2026-05-07 19:11 | 55.55611 | 9.96150 | 6839 ft | 237 kts | 308° |
| 2026-05-07 19:12 | 55.56622 | 9.93872 | 6532 ft | 234 kts | 308° |
| 2026-05-07 19:12 | 55.57627 | 9.91614 | 6194 ft | 232 kts | 308° |
| 2026-05-07 19:12 | 55.58626 | 9.89376 | 5842 ft | 231 kts | 308° |
| 2026-05-07 19:12 | 55.59619 | 9.87155 | 5514 ft | 229 kts | 308° |
| 2026-05-07 19:13 | 55.60606 | 9.84950 | 5181 ft | 228 kts | 308° |
| 2026-05-07 19:13 | 55.61573 | 9.82791 | 4888 ft | 225 kts | 308° |
| 2026-05-07 19:13 | 55.62531 | 9.80658 | 4751 ft | 216 kts | 308° |
| 2026-05-07 19:13 | 55.63450 | 9.78619 | 4617 ft | 208 kts | 308° |
| 2026-05-07 19:14 | 55.64337 | 9.76660 | 4455 ft | 201 kts | 308° |
| 2026-05-07 19:14 | 55.65209 | 9.74740 | 4193 ft | 199 kts | 308° |
| 2026-05-07 19:14 | 55.66081 | 9.72837 | 3916 ft | 198 kts | 308° |
| 2026-05-07 19:14 | 55.66956 | 9.70956 | 3647 ft | 197 kts | 308° |
| 2026-05-07 19:15 | 55.67836 | 9.69104 | 3379 ft | 196 kts | 308° |
| 2026-05-07 19:15 | 55.68715 | 9.67259 | 3104 ft | 196 kts | 308° |
| 2026-05-07 19:15 | 55.69591 | 9.65417 | 3016 ft | 195 kts | 309° |
| 2026-05-07 19:15 | 55.70469 | 9.63564 | 3023 ft | 196 kts | 308° |
| 2026-05-07 19:16 | 55.71338 | 9.61730 | 3026 ft | 197 kts | 308° |
| 2026-05-07 19:16 | 55.72212 | 9.59864 | 3028 ft | 197 kts | 308° |
| 2026-05-07 19:16 | 55.73090 | 9.57998 | 3021 ft | 197 kts | 308° |
| 2026-05-07 19:16 | 55.73971 | 9.56129 | 3028 ft | 197 kts | 309° |
| 2026-05-07 19:17 | 55.74760 | 9.54156 | 3018 ft | 196 kts | 293° |
| 2026-05-07 19:17 | 55.75087 | 9.51824 | 3020 ft | 195 kts | 270° |
| 2026-05-07 19:17 | 55.75031 | 9.49421 | 3030 ft | 192 kts | 266° |
| 2026-05-07 19:17 | 55.74969 | 9.47183 | 3030 ft | 175 kts | 266° |
| 2026-05-07 19:18 | 55.74911 | 9.45125 | 3010 ft | 159 kts | 266° |
| 2026-05-07 19:18 | 55.74858 | 9.43228 | 2983 ft | 151 kts | 266° |
| 2026-05-07 19:18 | 55.74805 | 9.41389 | 2856 ft | 148 kts | 266° |
| 2026-05-07 19:18 | 55.74754 | 9.39583 | 2688 ft | 145 kts | 266° |
| 2026-05-07 19:19 | 55.74702 | 9.37794 | 2500 ft | 144 kts | 266° |
| 2026-05-07 19:19 | 55.74651 | 9.36017 | 2298 ft | 144 kts | 267° |
| 2026-05-07 19:19 | 55.74600 | 9.34243 | 2104 ft | 144 kts | 267° |
| 2026-05-07 19:19 | 55.74548 | 9.32471 | 1907 ft | 143 kts | 267° |
| 2026-05-07 19:20 | 55.74497 | 9.30719 | 1708 ft | 141 kts | 267° |
| 2026-05-07 19:20 | 55.74447 | 9.29004 | 1529 ft | 138 kts | 267° |
| 2026-05-07 19:20 | 55.74397 | 9.27326 | 1341 ft | 137 kts | 267° |
| 2026-05-07 19:20 | 55.74346 | 9.25637 | 1134 ft | 137 kts | 267° |
| 2026-05-07 19:21 | 55.74288 | 9.23954 | 925 ft | 137 kts | 267° |
| 2026-05-07 19:21 | 55.74246 | 9.22275 | 728 ft | 136 kts | 268° |
| 2026-05-07 19:21 | 55.74201 | 9.20599 | 541 ft | 135 kts | 268° |
| 2026-05-07 19:21 | 55.74138 | 9.18927 | 381 ft | 135 kts | 268° |
| 2026-05-07 19:22 | 55.74083 | 9.17244 | 377 ft | 144 kts | 269° |
| 2026-05-07 19:22 | 55.74074 | 9.15305 | 745 ft | 171 kts | 270° |
| 2026-05-07 19:22 | 55.74056 | 9.12992 | 1213 ft | 196 kts | 268° |
| 2026-05-07 19:22 | 55.74012 | 9.10470 | 1844 ft | 215 kts | 268° |
| 2026-05-07 19:23 | 55.73966 | 9.07814 | 1978 ft | 215 kts | 268° |
| 2026-05-07 19:23 | 55.73921 | 9.05191 | 2012 ft | 215 kts | 268° |
| 2026-05-07 19:23 | 55.73877 | 9.02537 | 2013 ft | 215 kts | 268° |
| 2026-05-07 19:23 | 55.73922 | 8.99889 | 2009 ft | 216 kts | 283° |
| 2026-05-07 19:24 | 55.74681 | 8.97612 | 2022 ft | 218 kts | 319° |
| 2026-05-07 19:24 | 55.76060 | 8.96530 | 2240 ft | 223 kts | 354° |
| 2026-05-07 19:24 | 55.77583 | 8.97011 | 2498 ft | 228 kts | 28° |
| 2026-05-07 19:24 | 55.78859 | 8.98690 | 2764 ft | 229 kts | 42° |
| 2026-05-07 19:25 | 55.80043 | 9.00620 | 2956 ft | 231 kts | 44° |
| 2026-05-07 19:25 | 55.81217 | 9.02583 | 3009 ft | 231 kts | 44° |
| 2026-05-07 19:25 | 55.82376 | 9.04550 | 3007 ft | 228 kts | 46° |
| 2026-05-07 19:25 | 55.83133 | 9.06981 | 3008 ft | 226 kts | 79° |
| 2026-05-07 19:26 | 55.83278 | 9.09749 | 3012 ft | 225 kts | 94° |
| 2026-05-07 19:26 | 55.83110 | 9.12517 | 3011 ft | 225 kts | 93° |
| 2026-05-07 19:26 | 55.83096 | 9.15301 | 3041 ft | 225 kts | 90° |
| 2026-05-07 19:26 | 55.83125 | 9.18090 | 3041 ft | 225 kts | 89° |
| 2026-05-07 19:27 | 55.83159 | 9.20881 | 3039 ft | 225 kts | 89° |
| 2026-05-07 19:27 | 55.83193 | 9.23669 | 3039 ft | 225 kts | 89° |
| 2026-05-07 19:27 | 55.83227 | 9.26341 | 3028 ft | 212 kts | 89° |
| 2026-05-07 19:27 | 55.83262 | 9.28912 | 3031 ft | 205 kts | 89° |
| 2026-05-07 19:28 | 55.83295 | 9.31427 | 3026 ft | 202 kts | 89° |
| 2026-05-07 19:28 | 55.83327 | 9.33929 | 3035 ft | 202 kts | 89° |
| 2026-05-07 19:28 | 55.83359 | 9.36426 | 3032 ft | 201 kts | 89° |
| 2026-05-07 19:28 | 55.83391 | 9.38913 | 3015 ft | 201 kts | 89° |
| 2026-05-07 19:29 | 55.83423 | 9.41406 | 3018 ft | 201 kts | 89° |
| 2026-05-07 19:29 | 55.83453 | 9.43889 | 3027 ft | 201 kts | 89° |
| 2026-05-07 19:29 | 55.83483 | 9.46377 | 3025 ft | 201 kts | 90° |
| 2026-05-07 19:29 | 55.83514 | 9.48836 | 3026 ft | 202 kts | 89° |
| 2026-05-07 19:30 | 55.83481 | 9.51327 | 3016 ft | 201 kts | 105° |
| 2026-05-07 19:30 | 55.82792 | 9.53406 | 3020 ft | 197 kts | 143° |
| 2026-05-07 19:30 | 55.81553 | 9.54367 | 3037 ft | 196 kts | 169° |
| 2026-05-07 19:30 | 55.80209 | 9.54754 | 3032 ft | 196 kts | 174° |
| 2026-05-07 19:31 | 55.78852 | 9.55047 | 3022 ft | 196 kts | 174° |
| 2026-05-07 19:31 | 55.77497 | 9.55315 | 3022 ft | 196 kts | 178° |
| 2026-05-07 19:31 | 55.76195 | 9.54800 | 3011 ft | 194 kts | 215° |
| 2026-05-07 19:31 | 55.75312 | 9.53045 | 3017 ft | 193 kts | 246° |
| 2026-05-07 19:32 | 55.75053 | 9.50712 | 3035 ft | 194 kts | 266° |
| 2026-05-07 19:32 | 55.74993 | 9.48308 | 2915 ft | 197 kts | 267° |
| 2026-05-07 19:32 | 55.74929 | 9.45830 | 2525 ft | 200 kts | 267° |
| 2026-05-07 19:32 | 55.74862 | 9.43406 | 2119 ft | 199 kts | 267° |
| 2026-05-07 19:33 | 55.74793 | 9.40953 | 1730 ft | 198 kts | 267° |
| 2026-05-07 19:33 | 55.74723 | 9.38512 | 1324 ft | 197 kts | 267° |
| 2026-05-07 19:33 | 55.74655 | 9.36155 | 1270 ft | 179 kts | 267° |
| 2026-05-07 19:33 | 55.74597 | 9.34014 | 1122 ft | 169 kts | 268° |
| 2026-05-07 19:34 | 55.74565 | 9.31980 | 975 ft | 160 kts | 270° |
| 2026-05-07 19:34 | 55.74519 | 9.30089 | 863 ft | 147 kts | 266° |
| 2026-05-07 19:34 | 55.74438 | 9.28331 | 854 ft | 138 kts | 266° |
| 2026-05-07 19:34 | 55.74357 | 9.26564 | 896 ft | 145 kts | 268° |
| 2026-05-07 19:35 | 55.74333 | 9.24812 | 802 ft | 139 kts | 269° |
| 2026-05-07 19:35 | 55.74287 | 9.23114 | 704 ft | 137 kts | 266° |
| 2026-05-07 19:35 | 55.74219 | 9.21433 | 581 ft | 136 kts | 266° |
| 2026-05-07 19:35 | 55.74164 | 9.19757 | 454 ft | 136 kts | 269° |
| 2026-05-07 19:36 | 55.74126 | 9.18080 | 298 ft | 135 kts | 268° |
| 2026-05-07 19:36 | 55.74073 | 9.16513 | 239 ft | 110 kts | 268° |
| 2026-05-07 19:36 | 55.74045 | 9.15430 | 230 ft | 61 kts | 267° |
| 2026-05-07 19:36 | 55.74032 | 9.15000 | 230 ft | 29 kts | 267° |
| 2026-05-07 19:37 | 55.74023 | 9.14638 | 228 ft | 30 kts | 267° |
| 2026-05-07 19:37 | 55.74110 | 9.14479 | 225 ft | 21 kts | 1° |
| 2026-05-07 19:37 | 55.74261 | 9.14478 | 225 ft | 23 kts | 357° |
| 2026-05-07 19:37 | 55.74364 | 9.14469 | 225 ft | 13 kts | 357° |
| 2026-05-07 19:38 | 55.74441 | 9.14518 | 225 ft | 12 kts | 66° |
| 2026-05-07 19:38 | 55.74450 | 9.14653 | 226 ft | 10 kts | 84° |
| 2026-05-07 19:38 | 55.74496 | 9.14687 | 227 ft | 7 kts | 353° |
| 2026-05-07 19:38 | 55.74533 | 9.14679 | 227 ft | 0 kts | 355° |